createdAt,value
2019-03-30T00:02:25.802Z,5.07
2019-03-30T00:04:58.206Z,5.35
2019-03-30T00:07:28.626Z,5.90
2019-03-30T00:09:59.948Z,5.57
2019-03-30T00:12:32.483Z,5.15
2019-03-30T00:15:03.215Z,5.70
2019-03-30T00:17:33.538Z,5.80
2019-03-30T00:20:04.172Z,6.23
2019-03-30T00:22:34.630Z,6.03
2019-03-30T00:25:05.275Z,5.70
2019-03-30T00:27:35.747Z,5.53
2019-03-30T00:30:06.396Z,5.73
2019-03-30T00:32:36.631Z,5.90
2019-03-30T00:35:09.219Z,6.70
2019-03-30T00:37:39.738Z,6.27
2019-03-30T00:40:10.352Z,6.70
2019-03-30T00:42:40.779Z,5.90
2019-03-30T00:45:11.158Z,6.33
2019-03-30T00:47:41.466Z,6.37
2019-03-30T00:50:11.805Z,6.50
2019-03-30T00:52:41.968Z,6.85
2019-03-30T00:55:12.191Z,6.93
2019-03-30T00:57:42.441Z,6.83
2019-03-30T01:00:13.100Z,6.60
2019-03-30T01:02:43.333Z,6.57
2019-03-30T01:05:13.545Z,5.80
2019-03-30T01:07:43.893Z,6.53
2019-03-30T01:10:14.403Z,6.67
2019-03-30T01:12:44.591Z,6.67
2019-03-30T01:15:14.885Z,7.17
2019-03-30T01:17:45.098Z,6.77
2019-03-30T01:20:15.525Z,6.93
2019-03-30T01:22:45.896Z,7.22
2019-03-30T01:25:16.153Z,6.60
2019-03-30T01:27:47.608Z,6.90
2019-03-30T01:30:23.316Z,6.53
2019-03-30T01:32:50.217Z,7.67
2019-03-30T01:35:20.603Z,6.80
2019-03-30T01:37:50.902Z,6.47
2019-03-30T01:40:21.150Z,7.57
2019-03-30T01:42:51.503Z,7.20
2019-03-30T01:45:22.012Z,7.35
2019-03-30T01:47:52.386Z,7.40
2019-03-30T01:50:23.416Z,6.73
2019-03-30T01:52:53.689Z,7.70
2019-03-30T01:55:24.048Z,8.27
2019-03-30T01:57:54.503Z,7.95
2019-03-30T02:00:24.935Z,7.70
2019-03-30T02:02:55.325Z,7.77
2019-03-30T02:05:25.619Z,7.33
2019-03-30T02:07:57.038Z,7.53
2019-03-30T02:10:45.146Z,5.80
2019-03-30T02:13:15.652Z,6.95
2019-03-30T02:15:46.155Z,7.93
2019-03-30T02:18:17.387Z,7.20
2019-03-30T02:20:48.132Z,7.07
2019-03-30T02:23:18.452Z,6.37
2019-03-30T02:25:48.843Z,6.70
2019-03-30T02:28:19.123Z,6.63
2019-03-30T02:30:49.483Z,6.28
2019-03-30T02:33:19.795Z,6.70
2019-03-30T02:35:50.042Z,6.13
2019-03-30T02:38:20.451Z,5.80
2019-03-30T02:40:50.778Z,6.10
2019-03-30T02:43:21.361Z,6.20
2019-03-30T02:45:51.758Z,6.07
2019-03-30T02:48:22.159Z,6.23
2019-03-30T02:50:52.389Z,6.80
2019-03-30T02:53:22.591Z,6.07
2019-03-30T02:55:52.896Z,6.12
2019-03-30T02:58:23.442Z,6.10
2019-03-30T03:00:53.952Z,6.43
2019-03-30T03:03:24.233Z,6.10
2019-03-30T03:05:55.392Z,6.20
2019-03-30T03:08:25.687Z,6.13
2019-03-30T03:10:56.209Z,6.47
2019-03-30T03:13:26.553Z,6.10
2019-03-30T03:15:56.963Z,6.53
2019-03-30T03:18:27.524Z,6.83
2019-03-30T03:21:07.466Z,6.53
2019-03-30T03:23:31.472Z,6.53
2019-03-30T03:26:01.689Z,6.63
2019-03-30T03:28:31.965Z,7.07
2019-03-30T03:31:02.355Z,6.13
2019-03-30T03:33:32.732Z,6.60
2019-03-30T03:36:03.814Z,6.83
2019-03-30T03:38:34.131Z,6.73
2019-03-30T03:41:04.520Z,6.37
2019-03-30T03:43:34.888Z,7.77
2019-03-30T03:46:05.240Z,7.57
2019-03-30T03:48:35.588Z,7.20
2019-03-30T03:51:24.460Z,7.43
2019-03-30T03:53:38.280Z,7.00
2019-03-30T03:56:10.125Z,7.53
2019-03-30T03:58:41.509Z,7.33
2019-03-30T04:01:11.806Z,7.07
2019-03-30T04:03:42.405Z,7.17
2019-03-30T04:06:13.109Z,8.27
2019-03-30T04:08:44.915Z,7.20
2019-03-30T04:11:15.801Z,7.70
2019-03-30T04:13:48.120Z,7.30
2019-03-30T04:16:18.548Z,7.75
2019-03-30T04:18:49.984Z,8.07
2019-03-30T04:21:21.417Z,8.13
2019-03-30T04:23:54.389Z,8.20
2019-03-30T04:26:25.992Z,7.37
2019-03-30T04:28:56.837Z,7.90
2019-03-30T04:31:27.154Z,8.17
2019-03-30T04:33:57.452Z,8.23
2019-03-30T04:36:27.795Z,7.73
2019-03-30T04:38:58.130Z,7.62
2019-03-30T04:41:28.566Z,8.23
2019-03-30T04:43:59.665Z,7.67
2019-03-30T04:46:30.391Z,7.37
2019-03-30T04:49:00.879Z,7.90
2019-03-30T04:51:31.139Z,7.80
2019-03-30T04:54:01.439Z,7.67
2019-03-30T04:56:32.870Z,8.45
2019-03-30T04:59:04.367Z,7.73
2019-03-30T05:01:34.815Z,8.27
2019-03-30T05:04:05.096Z,9.13
2019-03-30T05:06:35.373Z,7.93
2019-03-30T05:09:06.710Z,7.00
2019-03-30T05:11:37.134Z,8.60
2019-03-30T05:14:08.548Z,8.20
2019-03-30T05:16:38.935Z,8.57
2019-03-30T05:19:09.349Z,7.73
2019-03-30T05:21:39.701Z,7.70
2019-03-30T05:24:10.042Z,7.30
2019-03-30T05:26:40.286Z,8.23
2019-03-30T05:29:10.556Z,8.60
2019-03-30T05:31:40.898Z,8.25
2019-03-30T05:34:11.434Z,8.83
2019-03-30T05:36:42.935Z,8.75
2019-03-30T05:39:13.284Z,8.40
2019-03-30T05:41:43.606Z,8.00
2019-03-30T05:44:14.038Z,8.05
2019-03-30T05:46:44.322Z,7.97
2019-03-30T05:49:14.946Z,8.05
2019-03-30T05:51:45.165Z,8.60
2019-03-30T05:54:15.594Z,8.00
2019-03-30T05:56:45.876Z,8.03
2019-03-30T05:59:16.341Z,8.60
2019-03-30T06:01:47.050Z,7.92
2019-03-30T06:04:17.454Z,7.83
2019-03-30T06:06:48.076Z,7.83
2019-03-30T06:09:18.396Z,8.13
2019-03-30T06:11:48.919Z,9.07
2019-03-30T06:14:19.255Z,8.27
2019-03-30T06:16:49.458Z,8.57
2019-03-30T06:19:19.986Z,9.13
2019-03-30T06:21:50.338Z,8.60
2019-03-30T06:24:20.792Z,9.13
2019-03-30T06:26:51.076Z,8.43
2019-03-30T06:29:21.752Z,9.37
2019-03-30T06:31:51.933Z,9.10
2019-03-30T06:34:22.360Z,8.37
2019-03-30T06:36:52.584Z,9.27
2019-03-30T06:39:22.874Z,8.37
2019-03-30T06:41:53.261Z,8.93
2019-03-30T06:44:23.683Z,8.77
2019-03-30T06:46:53.993Z,9.17
2019-03-30T06:49:24.435Z,8.90
2019-03-30T06:51:54.650Z,8.83
2019-03-30T06:54:26.102Z,8.60
2019-03-30T06:56:56.461Z,9.53
2019-03-30T06:59:27.314Z,8.70
2019-03-30T07:01:57.722Z,9.03
2019-03-30T07:04:28.299Z,9.47
2019-03-30T07:06:59.208Z,9.40
2019-03-30T07:09:31.053Z,9.23
2019-03-30T07:12:01.467Z,9.00
2019-03-30T07:14:33.553Z,9.33
2019-03-30T07:17:05.203Z,9.28
2019-03-30T07:19:38.369Z,9.00
2019-03-30T07:22:09.208Z,9.43
2019-03-30T07:24:39.825Z,8.90
2019-03-30T07:27:10.375Z,10.53
2019-03-30T07:29:40.904Z,10.00
2019-03-30T07:32:11.268Z,9.88
2019-03-30T07:34:41.992Z,10.17
2019-03-30T07:37:13.297Z,10.00
2019-03-30T07:39:44.451Z,10.00
2019-03-30T07:42:15.911Z,10.40
2019-03-30T07:44:46.166Z,10.28
2019-03-30T07:47:16.444Z,9.17
2019-03-30T07:49:46.793Z,10.40
2019-03-30T07:52:17.183Z,9.67
2019-03-30T07:54:47.563Z,9.58
2019-03-30T07:57:19.311Z,9.25
2019-03-30T07:59:49.573Z,10.28
2019-03-30T08:02:20.088Z,9.70
2019-03-30T08:04:50.778Z,9.78
2019-03-30T08:07:21.138Z,10.30
2019-03-30T08:09:51.588Z,9.40
2019-03-30T08:12:22.024Z,10.40
2019-03-30T08:14:53.117Z,9.28
2019-03-30T08:17:23.681Z,9.75
2019-03-30T08:19:55.108Z,8.95
2019-03-30T08:22:25.579Z,8.73
2019-03-30T08:24:55.920Z,8.83
2019-03-30T08:27:26.386Z,9.13
2019-03-30T08:29:56.606Z,8.75
2019-03-30T08:32:28.123Z,9.00
2019-03-30T08:34:58.369Z,9.63
2019-03-30T08:37:37.742Z,8.57
2019-03-30T08:40:08.127Z,9.70
2019-03-30T08:42:38.432Z,9.08
2019-03-30T08:45:08.993Z,8.60
2019-03-30T08:47:39.312Z,9.10
2019-03-30T08:50:10.188Z,8.20
2019-03-30T08:52:40.397Z,9.65
2019-03-30T08:55:11.292Z,9.23
2019-03-30T08:57:41.621Z,9.13
2019-03-30T09:00:12.126Z,9.40
2019-03-30T09:02:42.373Z,9.73
2019-03-30T09:05:13.117Z,9.13
2019-03-30T09:07:43.370Z,9.20
2019-03-30T09:10:13.827Z,9.23
2019-03-30T09:12:45.175Z,9.18
2019-03-30T09:15:15.789Z,9.13
2019-03-30T09:17:46.042Z,9.23
2019-03-30T09:20:17.467Z,8.68
2019-03-30T09:22:48.045Z,8.73
2019-03-30T09:25:18.439Z,7.87
2019-03-30T09:27:48.880Z,9.10
2019-03-30T09:30:19.633Z,8.13
2019-03-30T09:32:50.204Z,7.53
2019-03-30T09:35:20.719Z,8.03
2019-03-30T09:37:50.999Z,7.97
2019-03-30T09:40:21.379Z,9.30
2019-03-30T09:42:51.686Z,7.27
2019-03-30T09:45:21.907Z,9.05
2019-03-30T09:47:52.265Z,7.12
2019-03-30T09:50:22.642Z,7.20
2019-03-30T09:52:52.810Z,7.30
2019-03-30T09:55:23.081Z,6.83
2019-03-30T09:57:53.378Z,7.20
2019-03-30T10:00:24.092Z,6.70
2019-03-30T10:02:54.612Z,6.67
2019-03-30T10:05:25.032Z,7.30
2019-03-30T10:07:55.284Z,7.45
2019-03-30T10:10:25.575Z,6.55
2019-03-30T10:12:55.786Z,6.23
2019-03-30T10:15:26.021Z,6.15
2019-03-30T10:17:56.322Z,6.40
2019-03-30T10:20:29.649Z,6.73
2019-03-30T10:23:00.139Z,6.43
2019-03-30T10:25:31.461Z,7.45
2019-03-30T10:28:02.986Z,6.83
2019-03-30T10:30:34.110Z,5.60
2019-03-30T10:33:04.534Z,6.42
2019-03-30T10:35:36.709Z,6.08
2019-03-30T10:38:07.029Z,6.20
2019-03-30T10:40:37.809Z,6.45
2019-03-30T10:43:13.140Z,7.05
2019-03-30T10:45:43.862Z,7.58
2019-03-30T10:48:14.306Z,7.50
2019-03-30T10:50:44.735Z,7.35
2019-03-30T10:53:14.965Z,8.03
2019-03-30T10:55:45.349Z,6.75
2019-03-30T10:58:15.690Z,7.60
2019-03-30T11:00:46.144Z,8.08
2019-03-30T11:03:17.440Z,7.57
2019-03-30T11:05:50.982Z,7.55
2019-03-30T11:08:23.442Z,8.10
2019-03-30T11:10:53.741Z,8.87
2019-03-30T11:13:24.125Z,9.00
2019-03-30T11:15:55.361Z,8.70
2019-03-30T11:18:27.520Z,9.48
2019-03-30T11:20:57.850Z,7.78
2019-03-30T11:23:28.317Z,7.73
2019-03-30T11:25:58.844Z,8.43
2019-03-30T11:28:29.130Z,9.10
2019-03-30T11:31:00.698Z,9.80
2019-03-30T11:33:31.139Z,8.88
2019-03-30T11:36:01.518Z,8.80
2019-03-30T11:38:31.925Z,8.63
2019-03-30T11:41:02.704Z,8.30
2019-03-30T11:43:33.051Z,9.03
2019-03-30T11:46:03.384Z,9.37
2019-03-30T11:48:37.284Z,8.93
2019-03-30T11:51:06.324Z,8.30
2019-03-30T11:53:36.738Z,7.92
2019-03-30T11:56:07.161Z,7.80
2019-03-30T11:58:38.465Z,8.40
2019-03-30T12:01:09.044Z,7.65
2019-03-30T12:03:39.456Z,7.93
2019-03-30T12:06:09.979Z,8.00
2019-03-30T12:08:40.451Z,7.30
2019-03-30T12:11:10.813Z,7.10
2019-03-30T12:13:42.213Z,7.85
2019-03-30T12:16:12.675Z,8.97
2019-03-30T12:18:44.037Z,7.00
2019-03-30T12:21:14.377Z,7.80
2019-03-30T12:23:44.747Z,7.70
2019-03-30T12:26:15.390Z,7.65
2019-03-30T12:28:45.638Z,7.47
2019-03-30T12:31:17.185Z,7.40
2019-03-30T12:33:47.535Z,7.87
2019-03-30T12:36:18.300Z,8.30
2019-03-30T12:38:50.064Z,7.97
2019-03-30T12:41:20.809Z,8.60
2019-03-30T12:43:54.267Z,8.00
2019-03-30T12:46:24.536Z,7.50
2019-03-30T12:48:54.728Z,7.73
2019-03-30T12:51:25.166Z,7.10
2019-03-30T12:53:55.685Z,7.80
2019-03-30T12:56:26.023Z,7.40
2019-03-30T12:58:56.651Z,7.70
2019-03-30T13:01:26.916Z,7.60
2019-03-30T13:03:57.663Z,8.13
2019-03-30T13:06:27.922Z,8.20
2019-03-30T13:08:58.384Z,8.23
2019-03-30T13:11:28.806Z,8.00
2019-03-30T13:14:02.109Z,6.83
2019-03-30T13:16:32.711Z,7.42
2019-03-30T13:19:03.043Z,7.08
2019-03-30T13:21:33.520Z,6.90
2019-03-30T13:24:03.872Z,7.15
2019-03-30T13:26:37.367Z,6.90
2019-03-30T13:29:08.024Z,6.65
2019-03-30T13:31:38.519Z,6.70
2019-03-30T13:34:08.934Z,7.07
2019-03-30T13:36:40.871Z,6.78
2019-03-30T13:39:11.294Z,6.28
2019-03-30T13:41:41.617Z,6.73
2019-03-30T13:44:12.467Z,6.58
2019-03-30T13:46:42.947Z,6.33
2019-03-30T13:49:14.488Z,6.90
2019-03-30T13:51:45.211Z,6.87
2019-03-30T13:54:15.609Z,6.90
2019-03-30T13:56:49.853Z,7.22
2019-03-30T13:59:20.070Z,7.62
2019-03-30T14:01:50.476Z,7.67
2019-03-30T14:04:20.848Z,6.40
2019-03-30T14:06:51.037Z,6.00
2019-03-30T14:09:22.085Z,6.05
2019-03-30T14:11:53.147Z,6.87
2019-03-30T14:14:23.496Z,5.80
2019-03-30T14:16:53.746Z,6.57
2019-03-30T14:19:24.401Z,6.70
2019-03-30T14:21:54.587Z,6.00
2019-03-30T14:24:24.859Z,5.70
2019-03-30T14:26:57.922Z,6.12
2019-03-30T14:29:28.164Z,6.67
2019-03-30T14:31:58.597Z,6.53
2019-03-30T14:34:29.102Z,6.13
2019-03-30T14:36:59.614Z,5.60
2019-03-30T14:39:29.836Z,6.60
2019-03-30T14:42:00.161Z,6.40
2019-03-30T14:44:31.605Z,6.40
2019-03-30T14:47:04.721Z,6.90
2019-03-30T14:49:35.065Z,7.37
2019-03-30T14:52:05.478Z,6.87
2019-03-30T14:54:52.148Z,7.50
2019-03-30T14:57:13.085Z,7.10
2019-03-30T14:59:43.414Z,8.20
2019-03-30T15:02:13.723Z,6.87
2019-03-30T15:04:43.983Z,6.73
2019-03-30T15:07:14.311Z,7.17
2019-03-30T15:09:44.669Z,6.80
2019-03-30T15:12:16.407Z,6.63
2019-03-30T15:14:47.818Z,7.40
2019-03-30T15:17:18.032Z,7.13
2019-03-30T15:19:48.294Z,6.30
2019-03-30T15:22:18.667Z,7.40
2019-03-30T15:24:49.144Z,6.95
2019-03-30T15:27:19.789Z,6.70
2019-03-30T15:29:50.451Z,7.07
2019-03-30T15:32:20.934Z,7.30
2019-03-30T15:34:53.265Z,7.07
2019-03-30T15:37:26.009Z,7.80
2019-03-30T15:39:56.377Z,7.13
2019-03-30T15:42:27.373Z,7.05
2019-03-30T15:44:57.785Z,7.53
2019-03-30T15:47:28.236Z,7.53
2019-03-30T15:49:58.622Z,7.58
2019-03-30T15:52:29.020Z,8.13
2019-03-30T15:54:59.341Z,8.50
2019-03-30T15:57:29.580Z,8.80
2019-03-30T16:00:00.406Z,8.40
2019-03-30T16:02:31.782Z,8.97
2019-03-30T16:05:02.981Z,8.50
2019-03-30T16:07:33.374Z,8.73
2019-03-30T16:10:03.848Z,8.97
2019-03-30T16:12:34.441Z,10.78
2019-03-30T16:15:05.058Z,11.10
2019-03-30T16:17:35.293Z,16.80
2019-03-30T16:20:06.920Z,8.70
2019-03-30T16:22:38.942Z,9.30
2019-03-30T16:25:09.344Z,8.53
2019-03-30T16:27:39.781Z,9.07
2019-03-30T16:30:10.682Z,8.80
2019-03-30T16:32:41.010Z,8.60
2019-03-30T16:35:11.505Z,9.50
2019-03-30T16:37:41.868Z,9.40
2019-03-30T16:40:12.487Z,9.35
2019-03-30T16:42:42.884Z,9.37
2019-03-30T16:45:13.723Z,9.13
2019-03-30T16:47:44.088Z,8.80
2019-03-30T16:50:14.501Z,8.97
2019-03-30T16:52:46.255Z,8.55
2019-03-30T16:55:16.673Z,10.10
2019-03-30T16:57:47.740Z,10.72
2019-03-30T17:00:33.063Z,9.77
2019-03-30T17:03:04.493Z,8.48
2019-03-30T17:05:35.057Z,9.30
2019-03-30T17:08:05.543Z,8.97
2019-03-30T17:10:35.988Z,9.20
2019-03-30T17:13:06.217Z,9.40
2019-03-30T17:15:36.607Z,9.50
2019-03-30T17:18:06.929Z,9.07
2019-03-30T17:20:37.336Z,9.80
2019-03-30T17:23:07.623Z,11.53
2019-03-30T17:25:38.070Z,10.40
2019-03-30T17:28:09.430Z,10.63
2019-03-30T17:30:39.709Z,10.40
2019-03-30T17:33:10.013Z,9.55
2019-03-30T17:35:40.242Z,10.33
2019-03-30T17:38:10.702Z,9.97
2019-03-30T17:40:40.914Z,10.07
2019-03-30T17:43:12.162Z,10.72
2019-03-30T17:45:42.504Z,10.70
2019-03-30T17:48:12.769Z,9.87
2019-03-30T17:50:42.977Z,10.45
2019-03-30T17:53:13.274Z,10.40
2019-03-30T17:55:43.494Z,10.13
2019-03-30T17:58:13.849Z,10.27
2019-03-30T18:00:44.211Z,9.87
2019-03-30T18:03:14.440Z,10.47
2019-03-30T18:05:44.845Z,9.90
2019-03-30T18:08:15.167Z,9.20
2019-03-30T18:10:45.449Z,9.50
2019-03-30T18:13:15.866Z,15.98
2019-03-30T18:15:46.115Z,9.57
2019-03-30T18:18:16.366Z,10.13
2019-03-30T18:20:46.589Z,10.20
2019-03-30T18:23:16.880Z,11.80
2019-03-30T18:25:47.155Z,10.57
2019-03-30T18:28:27.009Z,11.47
2019-03-30T18:30:51.594Z,11.57
2019-03-30T18:33:22.001Z,10.67
2019-03-30T18:35:53.394Z,10.67
2019-03-30T18:38:23.899Z,10.50
2019-03-30T18:40:54.612Z,10.67
2019-03-30T18:43:24.838Z,10.45
2019-03-30T18:45:55.080Z,10.87
2019-03-30T18:48:25.318Z,10.10
2019-03-30T18:50:55.569Z,10.97
2019-03-30T18:53:26.774Z,10.40
2019-03-30T18:55:57.068Z,10.30
2019-03-30T18:58:41.094Z,10.60
2019-03-30T19:00:59.559Z,12.30
2019-03-30T19:03:29.796Z,11.33
2019-03-30T19:06:00.084Z,11.50
2019-03-30T19:08:30.359Z,10.95
2019-03-30T19:11:01.343Z,11.63
2019-03-30T19:13:36.117Z,11.73
2019-03-30T19:16:08.672Z,10.77
2019-03-30T19:18:38.854Z,10.57
2019-03-30T19:21:09.181Z,12.20
2019-03-30T19:23:39.449Z,12.05
2019-03-30T19:26:17.999Z,12.17
2019-03-30T19:28:56.121Z,11.90
2019-03-30T19:31:20.173Z,13.80
2019-03-30T19:33:50.342Z,12.50
2019-03-30T19:36:21.763Z,12.47
2019-03-30T19:38:52.193Z,12.37
2019-03-30T19:41:22.416Z,14.10
2019-03-30T19:43:52.666Z,12.37
2019-03-30T19:46:26.454Z,12.80
2019-03-30T19:48:54.881Z,13.47
2019-03-30T19:51:25.941Z,12.45
2019-03-30T19:53:59.727Z,13.73
2019-03-30T19:56:28.359Z,14.27
2019-03-30T19:59:10.140Z,14.23
2019-03-30T20:01:30.690Z,14.90
2019-03-30T20:04:02.335Z,15.23
2019-03-30T20:06:32.620Z,15.00
2019-03-30T20:09:05.504Z,15.30
2019-03-30T20:11:37.433Z,15.67
2019-03-30T20:14:07.872Z,16.82
2019-03-30T20:16:42.005Z,16.67
2019-03-30T20:19:12.711Z,15.83
2019-03-30T20:21:42.675Z,16.87
2019-03-30T20:24:13.304Z,16.70
2019-03-30T20:26:43.666Z,16.47
2019-03-30T20:29:25.148Z,16.03
2019-03-30T20:31:47.212Z,16.05
2019-03-30T20:34:17.434Z,16.27
2019-03-30T20:36:47.838Z,16.50
2019-03-30T20:39:18.169Z,17.17
2019-03-30T20:41:48.426Z,16.80
2019-03-30T20:44:18.798Z,18.50
2019-03-30T20:46:49.146Z,16.30
2019-03-30T20:49:19.321Z,17.70
2019-03-30T20:51:49.691Z,18.67
2019-03-30T20:54:20.197Z,17.93
2019-03-30T20:56:50.651Z,18.40
2019-03-30T20:59:21.080Z,17.03
2019-03-30T21:01:52.221Z,17.17
2019-03-30T21:04:22.617Z,19.00
2019-03-30T21:06:53.135Z,17.27
2019-03-30T21:09:23.592Z,17.77
2019-03-30T21:11:54.745Z,18.27
2019-03-30T21:14:25.278Z,19.30
2019-03-30T21:16:55.809Z,18.40
2019-03-30T21:19:26.064Z,19.37
2019-03-30T21:21:56.793Z,17.83
2019-03-30T21:24:27.197Z,18.43
2019-03-30T21:26:57.675Z,19.17
2019-03-30T21:29:28.222Z,17.65
2019-03-30T21:31:58.458Z,17.60
2019-03-30T21:34:28.799Z,18.48
2019-03-30T21:36:59.238Z,17.70
2019-03-30T21:39:29.510Z,18.57
2019-03-30T21:42:00.045Z,19.42
2019-03-30T21:44:30.511Z,18.40
2019-03-30T21:47:00.911Z,17.97
2019-03-30T21:49:31.306Z,18.57
2019-03-30T21:52:01.509Z,18.23
2019-03-30T21:54:31.766Z,17.87
2019-03-30T21:57:03.301Z,17.73
2019-03-30T21:59:33.933Z,18.30
2019-03-30T22:02:04.736Z,18.37
2019-03-30T22:04:35.129Z,18.13
2019-03-30T22:07:05.592Z,18.97
2019-03-30T22:09:36.209Z,18.67
2019-03-30T22:12:06.528Z,18.60
2019-03-30T22:14:36.828Z,18.73
2019-03-30T22:17:07.822Z,18.10
2019-03-30T22:19:39.129Z,17.83
2019-03-30T22:22:09.528Z,18.10
2019-03-30T22:24:39.906Z,18.23
2019-03-30T22:27:10.599Z,17.27
2019-03-30T22:29:41.981Z,17.73
2019-03-30T22:32:12.311Z,17.53
2019-03-30T22:34:42.725Z,17.87
2019-03-30T22:37:13.112Z,17.93
2019-03-30T22:39:44.637Z,17.45
2019-03-30T22:42:15.037Z,18.20
2019-03-30T22:44:45.366Z,19.77
2019-03-30T22:47:15.873Z,18.85
2019-03-30T22:49:47.396Z,18.33
2019-03-30T22:52:20.385Z,18.25
2019-03-30T22:54:50.863Z,18.53
2019-03-30T22:57:21.399Z,19.33
2019-03-30T22:59:51.666Z,18.43
2019-03-30T23:02:21.979Z,18.23
2019-03-30T23:04:52.452Z,18.67
2019-03-30T23:07:23.472Z,18.00
2019-03-30T23:09:56.798Z,17.77
2019-03-30T23:12:27.177Z,18.33
2019-03-30T23:14:59.493Z,17.93
2019-03-30T23:17:35.680Z,17.47
2019-03-30T23:20:08.455Z,16.82
2019-03-30T23:22:38.757Z,18.97
2019-03-30T23:25:09.490Z,18.23
2019-03-30T23:27:40.659Z,17.10
2019-03-30T23:30:11.564Z,17.77
2019-03-30T23:32:42.222Z,17.85
2019-03-30T23:35:13.118Z,17.67
2019-03-30T23:37:47.610Z,18.60
2019-03-30T23:40:24.233Z,18.03
2019-03-30T23:42:58.383Z,19.47
2019-03-30T23:45:31.664Z,18.10
2019-03-30T23:48:07.870Z,18.00
2019-03-30T23:50:42.526Z,18.13
2019-03-30T23:53:15.061Z,18.55
2019-03-30T23:55:45.839Z,18.30
2019-03-30T23:58:17.439Z,20.10
